Terminal Aerodrome Forecast
Issued by NWS Nashville, TN

Home | Current Version | Previous Version | Text Only | Print | Product List | Glossary On
Versions: 1 2 3 4 5 6 7 8 9 10 11 12 13 14 15 16
000
FTUS44 KOHX 220526
TAFCSV
TAF
KCSV 220526Z 2206/2306 18011KT P6SM OVC070
     FM221000 17012G18KT P6SM SCT070 BKN140
     FM221800 18016KT 5SM SHRA BKN025
      TEMPO 2219/2223 18020G30KT 1SM +TSRA OVC008CB
     FM222300 21013KT P6SM VCSH BKN020
     FM230200 24011KT P6SM SCT035=

USA.gov is the U.S. government's official web portal to all federal, state and local government web resources and services.